Beechy, Canada
Current Conditions -  °F | °C
As of 2:25 AM on Sunday 23 Nov 2014 (Local Time) from CYYN Reporting Station
Light Snow Light Snow  
Wind Chill: -2°   Ceiling: 1300
Heat Index: 18°   Visibility: 1.5mi
Dew Point: 16°   Wind: 29mph
Humidity: 93%   Direction: 320°NW
Pressure: 29.49"   Gusts: 37mph
Location:  50.88°N, 107.38°W
Report Text: CYYN 230825Z AUTO 32025G32KT 1 1/2SM -SN FEW007 BKN013 OVC020 M08/M09 A2949 RMK SLP014
Loading
Personal Weather Stations






























Interactive Weather Map New forecast layout! Learn more

10-Day Weather Forecast

Advertisements
Track Severe Weather on mobile